createdAt,value
2023-03-11T00:01:00.949Z,14.65
2023-03-11T00:02:02.362Z,14.20
2023-03-11T00:03:05.587Z,15.18
2023-03-11T00:04:07.464Z,15.55
2023-03-11T00:05:09.716Z,15.43
2023-03-11T00:06:11.287Z,15.43
2023-03-11T00:07:12.728Z,15.48
2023-03-11T00:08:17.977Z,15.73
2023-03-11T00:09:19.392Z,16.00
2023-03-11T00:10:41.965Z,15.82
2023-03-11T00:11:43.398Z,13.65
2023-03-11T00:12:44.977Z,16.65
2023-03-11T00:13:46.454Z,17.55
2023-03-11T00:14:47.872Z,15.55
2023-03-11T00:15:51.064Z,16.45
2023-03-11T00:16:52.521Z,16.60
2023-03-11T00:17:54.520Z,15.80
2023-03-11T00:18:55.984Z,17.10
2023-03-11T00:19:57.457Z,16.85
2023-03-11T00:21:00.015Z,17.10
2023-03-11T00:22:03.035Z,18.38
2023-03-11T00:23:05.751Z,17.08
2023-03-11T00:24:07.512Z,16.23
2023-03-11T00:25:11.002Z,17.17
2023-03-11T00:26:13.105Z,16.70
2023-03-11T00:28:16.553Z,9.50
2023-03-11T00:30:21.222Z,12.75
2023-03-11T00:31:22.817Z,12.00
2023-03-11T00:32:24.313Z,13.45
2023-03-11T00:33:25.713Z,15.95
2023-03-11T00:34:27.222Z,16.05
2023-03-11T00:35:31.284Z,15.68
2023-03-11T00:36:33.857Z,15.70
2023-03-11T00:37:35.306Z,16.77
2023-03-11T00:38:36.805Z,16.40
2023-03-11T00:39:38.260Z,15.82
2023-03-11T00:40:40.332Z,16.45
2023-03-11T00:41:41.720Z,16.15
2023-03-11T00:42:43.586Z,16.23
2023-03-11T00:43:45.001Z,13.80
2023-03-11T00:44:46.512Z,15.23
2023-03-11T00:45:48.311Z,15.13
2023-03-11T00:46:49.831Z,14.45
2023-03-11T00:47:52.358Z,15.10
2023-03-11T00:48:53.888Z,14.57
2023-03-11T00:49:55.338Z,13.38
2023-03-11T00:50:56.841Z,14.75
2023-03-11T00:51:58.256Z,12.52
2023-03-11T00:53:00.702Z,14.40
2023-03-11T00:54:02.131Z,14.20
2023-03-11T00:55:03.768Z,13.23
2023-03-11T00:56:12.880Z,12.35
2023-03-11T00:57:14.362Z,15.32
2023-03-11T00:58:15.859Z,12.93
2023-03-11T00:59:17.279Z,14.15
2023-03-11T01:00:20.279Z,15.32
2023-03-11T01:01:21.769Z,15.18
2023-03-11T01:02:24.126Z,12.57
2023-03-11T01:03:25.552Z,16.05
2023-03-11T01:04:27.084Z,15.02
2023-03-11T01:05:31.696Z,14.68
2023-03-11T01:06:44.785Z,14.73
2023-03-11T01:07:47.348Z,16.73
2023-03-11T01:08:48.755Z,16.27
2023-03-11T01:09:50.183Z,18.00
2023-03-11T01:10:51.650Z,17.00
2023-03-11T01:11:54.150Z,14.70
2023-03-11T01:12:55.957Z,16.02
2023-03-11T01:13:57.861Z,17.65
2023-03-11T01:14:59.732Z,17.08
2023-03-11T01:16:01.745Z,17.05
2023-03-11T01:17:03.276Z,17.30
2023-03-11T01:18:06.326Z,17.90
2023-03-11T01:19:07.726Z,17.35
2023-03-11T01:20:10.920Z,17.52
2023-03-11T01:21:12.364Z,18.08
2023-03-11T01:22:13.790Z,17.55
2023-03-11T01:23:17.412Z,18.10
2023-03-11T01:24:18.857Z,14.63
2023-03-11T01:25:22.287Z,17.70
2023-03-11T01:26:23.720Z,17.17
2023-03-11T01:27:25.524Z,19.88
2023-03-11T01:28:27.011Z,18.45
2023-03-11T01:29:28.448Z,18.90
2023-03-11T01:30:30.211Z,20.58
2023-03-11T01:31:31.642Z,18.25
2023-03-11T01:32:33.090Z,20.30
2023-03-11T01:33:34.829Z,17.98
2023-03-11T01:34:36.369Z,21.05
2023-03-11T01:35:39.952Z,20.10
2023-03-11T01:36:41.476Z,21.42
2023-03-11T01:37:43.330Z,18.33
2023-03-11T01:38:44.786Z,18.83
2023-03-11T01:39:46.191Z,18.42
2023-03-11T01:40:50.784Z,18.08
2023-03-11T01:41:53.077Z,16.75
2023-03-11T01:42:54.836Z,17.13
2023-03-11T01:43:56.388Z,19.15
2023-03-11T01:44:57.868Z,18.30
2023-03-11T01:45:59.242Z,18.00
2023-03-11T01:47:02.083Z,17.38
2023-03-11T01:48:04.094Z,16.98
2023-03-11T01:49:05.882Z,15.95
2023-03-11T01:50:12.613Z,16.50
2023-03-11T01:51:15.489Z,11.82
2023-03-11T01:52:16.973Z,14.00
2023-03-11T01:53:18.856Z,15.52
2023-03-11T01:54:37.396Z,15.23
2023-03-11T01:55:39.466Z,14.70
2023-03-11T01:56:42.601Z,13.65
2023-03-11T01:57:45.856Z,15.05
2023-03-11T01:58:51.986Z,12.82
2023-03-11T01:59:57.763Z,11.75
2023-03-11T02:01:00.254Z,12.63
2023-03-11T02:02:29.657Z,10.95
2023-03-11T02:03:33.884Z,8.40
2023-03-11T02:04:37.667Z,10.38
2023-03-11T02:05:39.963Z,11.25
2023-03-11T02:06:41.572Z,10.75
2023-03-11T02:07:43.004Z,9.82
2023-03-11T02:08:45.317Z,6.95
2023-03-11T02:09:46.839Z,8.82
2023-03-11T02:10:51.885Z,4.82
2023-03-11T02:11:53.900Z,7.63
2023-03-11T02:12:55.364Z,6.68
2023-03-11T02:14:02.366Z,5.22
2023-03-11T02:15:06.710Z,6.22
2023-03-11T02:16:08.699Z,5.65
2023-03-11T02:17:10.339Z,5.13
2023-03-11T02:18:14.652Z,5.93
2023-03-11T02:19:27.436Z,5.25
2023-03-11T02:20:54.790Z,4.15
2023-03-11T02:21:57.235Z,4.32
2023-03-11T02:23:00.971Z,4.18
2023-03-11T02:24:15.883Z,4.03
2023-03-11T02:25:30.930Z,3.88
2023-03-11T02:26:39.868Z,3.80
2023-03-11T02:27:43.423Z,4.53
2023-03-11T02:28:47.556Z,4.00
2023-03-11T02:29:51.456Z,3.95
2023-03-11T02:30:53.583Z,2.88
2023-03-11T02:32:57.651Z,3.10
2023-03-11T02:34:02.998Z,3.42
2023-03-11T02:35:05.777Z,3.03
2023-03-11T02:36:07.788Z,3.50
2023-03-11T02:37:12.508Z,3.88
2023-03-11T02:38:14.316Z,2.85
2023-03-11T02:39:15.872Z,3.58
2023-03-11T02:40:23.258Z,3.47
2023-03-11T02:41:24.725Z,3.08
2023-03-11T02:42:32.257Z,3.53
2023-03-11T02:43:40.766Z,3.47
2023-03-11T02:44:46.663Z,3.20
2023-03-11T02:45:48.553Z,2.97
2023-03-11T02:46:50.478Z,3.35
2023-03-11T02:47:54.534Z,2.38
2023-03-11T02:48:56.755Z,3.40
2023-03-11T02:49:58.178Z,3.95
2023-03-11T02:50:59.950Z,2.97
2023-03-11T02:52:01.515Z,3.00
2023-03-11T02:53:04.400Z,2.50
2023-03-11T02:54:06.340Z,3.30
2023-03-11T02:55:09.948Z,3.75
2023-03-11T02:56:11.428Z,3.90
2023-03-11T02:57:12.936Z,3.65
2023-03-11T02:58:14.452Z,3.53
2023-03-11T02:59:15.880Z,4.00
2023-03-11T03:00:17.971Z,2.47
2023-03-11T03:01:19.418Z,3.85
2023-03-11T03:02:20.828Z,3.85
2023-03-11T03:03:22.228Z,4.50
2023-03-11T03:04:23.782Z,3.53
2023-03-11T03:05:25.283Z,3.78
2023-03-11T03:06:28.467Z,4.45
2023-03-11T03:07:29.951Z,4.32
2023-03-11T03:08:31.563Z,4.47
2023-03-11T03:09:33.572Z,4.43
2023-03-11T03:10:35.088Z,3.95
2023-03-11T03:11:36.528Z,3.55
2023-03-11T03:12:37.961Z,4.32
2023-03-11T03:13:39.575Z,4.47
2023-03-11T03:14:40.964Z,4.93
2023-03-11T03:15:42.389Z,4.57
2023-03-11T03:16:44.005Z,4.38
2023-03-11T03:17:46.251Z,5.22
2023-03-11T03:18:47.730Z,5.05
2023-03-11T03:19:49.284Z,5.18
2023-03-11T03:20:52.401Z,4.07
2023-03-11T03:21:53.843Z,5.15
2023-03-11T03:22:55.285Z,5.03
2023-03-11T03:23:56.691Z,4.60
2023-03-11T03:24:58.111Z,5.35
2023-03-11T03:25:59.636Z,4.78
2023-03-11T03:27:01.043Z,4.20
2023-03-11T03:28:02.544Z,5.95
2023-03-11T03:29:05.307Z,4.95
2023-03-11T03:30:08.098Z,5.28
2023-03-11T03:31:10.372Z,5.18
2023-03-11T03:32:11.908Z,5.22
2023-03-11T03:33:13.405Z,5.43
2023-03-11T03:34:14.943Z,5.40
2023-03-11T03:35:16.529Z,5.63
2023-03-11T03:36:17.991Z,5.50
2023-03-11T03:37:19.390Z,5.43
2023-03-11T03:38:20.824Z,5.53
2023-03-11T03:39:22.226Z,5.88
2023-03-11T03:40:23.709Z,4.00
2023-03-11T03:41:25.743Z,5.45
2023-03-11T03:42:27.722Z,5.38
2023-03-11T03:43:29.229Z,5.00
2023-03-11T03:44:30.720Z,5.15
2023-03-11T03:45:32.160Z,5.88
2023-03-11T03:46:33.624Z,5.40
2023-03-11T03:47:36.199Z,5.78
2023-03-11T03:48:38.479Z,5.85
2023-03-11T03:49:39.924Z,5.57
2023-03-11T03:50:41.395Z,6.15
2023-03-11T03:51:42.790Z,5.80
2023-03-11T03:52:44.270Z,6.45
2023-03-11T03:53:48.523Z,5.68
2023-03-11T03:54:50.160Z,5.35
2023-03-11T03:55:51.539Z,5.97
2023-03-11T03:56:52.961Z,6.82
2023-03-11T03:57:54.379Z,6.20
2023-03-11T03:58:55.836Z,6.22
2023-03-11T03:59:57.361Z,6.13
2023-03-11T04:00:59.211Z,6.45
2023-03-11T04:02:00.779Z,5.88
2023-03-11T04:03:02.335Z,6.88
2023-03-11T04:04:03.903Z,5.80
2023-03-11T04:05:05.978Z,5.75
2023-03-11T04:06:11.566Z,5.93
2023-03-11T04:07:13.355Z,5.30
2023-03-11T04:08:14.886Z,6.40
2023-03-11T04:09:16.356Z,6.55
2023-03-11T04:10:17.901Z,5.63
2023-03-11T04:11:20.327Z,5.50
2023-03-11T04:12:21.734Z,6.13
2023-03-11T04:13:23.300Z,6.65
2023-03-11T04:14:25.526Z,6.43
2023-03-11T04:15:26.988Z,5.95
2023-03-11T04:16:28.457Z,4.68
2023-03-11T04:17:29.951Z,6.20
2023-03-11T04:18:31.415Z,5.70
2023-03-11T04:19:32.901Z,6.88
2023-03-11T04:20:34.326Z,6.65
2023-03-11T04:21:35.788Z,6.63
2023-03-11T04:22:37.304Z,7.10
2023-03-11T04:23:39.064Z,7.22
2023-03-11T04:24:40.510Z,7.35
2023-03-11T04:25:43.278Z,6.25
2023-03-11T04:26:45.045Z,6.78
2023-03-11T04:27:49.903Z,7.00
2023-03-11T04:28:51.310Z,7.82
2023-03-11T04:29:52.669Z,7.18
2023-03-11T04:30:54.247Z,7.38
2023-03-11T04:31:55.792Z,7.45
2023-03-11T04:32:57.303Z,7.50
2023-03-11T04:33:58.814Z,7.57
2023-03-11T04:35:00.349Z,7.82
2023-03-11T04:36:06.529Z,7.97
2023-03-11T04:37:08.075Z,6.22
2023-03-11T04:38:09.511Z,6.97
2023-03-11T04:39:11.729Z,6.55
2023-03-11T04:40:13.486Z,7.13
2023-03-11T04:41:14.960Z,5.97
2023-03-11T04:42:16.407Z,6.25
2023-03-11T04:43:18.197Z,6.47
2023-03-11T04:44:19.681Z,6.18
2023-03-11T04:45:21.398Z,6.28
2023-03-11T04:46:22.969Z,6.05
2023-03-11T04:47:24.471Z,5.65
2023-03-11T04:48:27.114Z,3.92
2023-03-11T04:49:28.564Z,6.18
2023-03-11T04:50:30.021Z,3.35
2023-03-11T04:51:31.592Z,4.80
2023-03-11T04:52:33.050Z,4.63
2023-03-11T04:53:34.647Z,4.75
2023-03-11T04:54:36.042Z,4.80
2023-03-11T04:55:37.855Z,4.78
2023-03-11T04:56:39.308Z,3.60
2023-03-11T04:57:42.043Z,4.65
2023-03-11T04:58:43.526Z,4.75
2023-03-11T04:59:44.949Z,4.05
2023-03-11T05:00:46.612Z,4.03
2023-03-11T05:01:48.132Z,4.22
2023-03-11T05:02:49.581Z,4.00
2023-03-11T05:03:51.019Z,3.28
2023-03-11T05:04:52.501Z,3.95
2023-03-11T05:05:56.645Z,4.45
2023-03-11T05:06:58.075Z,4.03
2023-03-11T05:07:59.534Z,3.92
2023-03-11T05:09:00.953Z,3.95
2023-03-11T05:10:03.953Z,4.40
2023-03-11T05:11:05.412Z,3.47
2023-03-11T05:12:07.149Z,3.88
2023-03-11T05:13:08.906Z,3.60
2023-03-11T05:14:10.330Z,3.50
2023-03-11T05:15:11.727Z,4.38
2023-03-11T05:16:13.236Z,3.78
2023-03-11T05:17:14.925Z,4.32
2023-03-11T05:18:16.648Z,4.57
2023-03-11T05:19:34.750Z,4.05
2023-03-11T05:20:36.521Z,3.22
2023-03-11T05:21:37.924Z,3.70
2023-03-11T05:22:39.484Z,3.45
2023-03-11T05:23:40.969Z,4.43
2023-03-11T05:24:42.417Z,4.35
2023-03-11T05:25:43.859Z,4.40
2023-03-11T05:26:48.163Z,4.60
2023-03-11T05:27:50.003Z,4.88
2023-03-11T05:28:51.394Z,4.25
2023-03-11T05:29:52.808Z,4.65
2023-03-11T05:30:54.400Z,5.10
2023-03-11T05:31:56.012Z,4.45
2023-03-11T05:32:57.568Z,3.65
2023-03-11T05:33:58.959Z,3.45
2023-03-11T05:35:01.060Z,4.43
2023-03-11T05:36:07.113Z,3.78
2023-03-11T05:37:09.027Z,4.40
2023-03-11T05:38:10.488Z,4.38
2023-03-11T05:39:12.205Z,3.83
2023-03-11T05:40:13.816Z,4.18
2023-03-11T05:41:15.309Z,4.10
2023-03-11T05:42:16.745Z,4.60
2023-03-11T05:43:18.185Z,4.78
2023-03-11T05:44:19.680Z,4.85
2023-03-11T05:45:21.266Z,4.43
2023-03-11T05:46:22.916Z,5.55
2023-03-11T05:47:24.464Z,4.78
2023-03-11T05:48:25.921Z,4.72
2023-03-11T05:49:28.020Z,5.05
2023-03-11T05:50:29.448Z,5.85
2023-03-11T05:51:30.895Z,5.18
2023-03-11T05:52:33.779Z,5.13
2023-03-11T05:53:35.675Z,5.75
2023-03-11T05:54:37.129Z,4.75
2023-03-11T05:55:38.527Z,5.07
2023-03-11T05:56:39.918Z,5.50
2023-03-11T05:57:41.307Z,5.07
2023-03-11T05:58:42.786Z,5.53
2023-03-11T05:59:44.350Z,5.95
2023-03-11T06:00:45.760Z,5.38
2023-03-11T06:01:47.210Z,5.60
2023-03-11T06:02:48.796Z,5.45
2023-03-11T06:03:50.335Z,5.55
2023-03-11T06:04:52.079Z,4.97
2023-03-11T06:05:53.671Z,5.40
2023-03-11T06:06:55.103Z,4.38
2023-03-11T06:07:56.582Z,5.70
2023-03-11T06:08:58.302Z,5.30
2023-03-11T06:09:59.829Z,5.45
2023-03-11T06:11:07.361Z,5.05
2023-03-11T06:12:08.813Z,4.88
2023-03-11T06:13:10.416Z,5.38
2023-03-11T06:14:13.894Z,5.75
2023-03-11T06:15:15.605Z,5.95
2023-03-11T06:16:17.050Z,4.82
2023-03-11T06:17:18.520Z,5.30
2023-03-11T06:18:19.942Z,5.53
2023-03-11T06:19:21.542Z,5.03
2023-03-11T06:20:22.984Z,5.57
2023-03-11T06:21:24.459Z,5.72
2023-03-11T06:22:25.934Z,5.85
2023-03-11T06:23:28.296Z,4.90
2023-03-11T06:24:29.743Z,5.55
2023-03-11T06:25:31.191Z,6.13
2023-03-11T06:26:32.638Z,5.85
2023-03-11T06:27:34.133Z,5.95
2023-03-11T06:28:35.552Z,6.93
2023-03-11T06:29:37.016Z,5.82
2023-03-11T06:30:38.437Z,5.55
2023-03-11T06:31:40.343Z,4.85
2023-03-11T06:32:44.891Z,5.57
2023-03-11T06:33:47.418Z,4.90
2023-03-11T06:34:52.848Z,5.78
2023-03-11T06:36:01.676Z,5.32
2023-03-11T06:37:03.216Z,6.43
2023-03-11T06:38:04.630Z,5.07
2023-03-11T06:39:06.713Z,4.63
2023-03-11T06:40:09.872Z,6.43
2023-03-11T06:41:11.317Z,6.68
2023-03-11T06:42:12.853Z,6.85
2023-03-11T06:43:14.432Z,6.60
2023-03-11T06:44:15.887Z,6.20
2023-03-11T06:45:20.170Z,7.38
2023-03-11T06:46:23.126Z,6.70
2023-03-11T06:47:24.677Z,7.15
2023-03-11T06:48:26.471Z,7.22
2023-03-11T06:49:27.913Z,7.47
2023-03-11T06:50:29.347Z,8.02
2023-03-11T06:51:30.768Z,8.35
2023-03-11T06:52:32.390Z,8.07
2023-03-11T06:53:34.096Z,7.90
2023-03-11T06:54:35.917Z,8.07
2023-03-11T06:55:37.396Z,6.90
2023-03-11T06:56:38.902Z,6.28
2023-03-11T06:57:40.329Z,6.30
2023-03-11T06:58:42.893Z,8.07
2023-03-11T06:59:44.323Z,7.53
2023-03-11T07:00:45.809Z,7.70
2023-03-11T07:01:47.394Z,6.13
2023-03-11T07:02:49.151Z,6.18
2023-03-11T07:03:51.513Z,7.43
2023-03-11T07:04:53.003Z,7.65
2023-03-11T07:05:54.467Z,7.50
2023-03-11T07:06:55.868Z,7.80
2023-03-11T07:07:57.265Z,8.05
2023-03-11T07:08:58.732Z,7.18
2023-03-11T07:10:00.602Z,8.13
2023-03-11T07:11:07.948Z,7.47
2023-03-11T07:12:10.050Z,7.82
2023-03-11T07:13:11.908Z,7.95
2023-03-11T07:14:13.377Z,7.57
2023-03-11T07:15:15.391Z,7.30
2023-03-11T07:16:20.669Z,6.65
2023-03-11T07:17:22.680Z,6.35
2023-03-11T07:18:24.096Z,6.75
2023-03-11T07:19:25.547Z,5.60
2023-03-11T07:20:27.267Z,6.63
2023-03-11T07:21:31.511Z,6.80
2023-03-11T07:22:32.971Z,6.10
2023-03-11T07:23:35.862Z,6.20
2023-03-11T07:24:37.299Z,5.28
2023-03-11T07:25:38.917Z,7.10
2023-03-11T07:26:43.077Z,6.93
2023-03-11T07:27:45.618Z,7.18
2023-03-11T07:28:49.254Z,5.90
2023-03-11T07:29:50.688Z,6.82
2023-03-11T07:30:52.738Z,7.38
2023-03-11T07:31:54.165Z,6.55
2023-03-11T07:32:55.762Z,7.43
2023-03-11T07:33:59.940Z,6.40
2023-03-11T07:35:01.374Z,7.15
2023-03-11T07:36:10.669Z,6.32
2023-03-11T07:37:12.156Z,6.68
2023-03-11T07:38:13.623Z,5.60
2023-03-11T07:39:18.045Z,6.38
2023-03-11T07:40:20.321Z,6.15
2023-03-11T07:41:21.932Z,5.47
2023-03-11T07:42:23.428Z,6.57
2023-03-11T07:43:25.051Z,5.75
2023-03-11T07:44:26.483Z,4.93
2023-03-11T07:45:27.963Z,4.80
2023-03-11T07:46:30.958Z,6.93
2023-03-11T07:47:32.440Z,6.65
2023-03-11T07:48:34.174Z,7.07
2023-03-11T07:49:35.870Z,6.75
2023-03-11T07:50:37.289Z,7.18
2023-03-11T07:51:40.921Z,7.00
2023-03-11T07:52:42.437Z,7.03
2023-03-11T07:53:44.564Z,6.78
2023-03-11T07:55:48.589Z,6.22
2023-03-11T07:56:50.074Z,6.95
2023-03-11T07:57:51.637Z,5.60
2023-03-11T07:58:53.186Z,7.28
2023-03-11T07:59:54.619Z,6.32
2023-03-11T08:00:57.000Z,6.38
2023-03-11T08:01:58.447Z,6.90
2023-03-11T08:02:59.885Z,6.20
2023-03-11T08:04:01.986Z,6.18
2023-03-11T08:06:19.128Z,7.20
2023-03-11T08:07:20.802Z,5.50
2023-03-11T08:08:22.338Z,5.78
2023-03-11T08:09:23.784Z,6.60
2023-03-11T08:10:25.174Z,7.10
2023-03-11T08:11:26.892Z,7.53
2023-03-11T08:12:28.457Z,6.22
2023-03-11T08:13:29.904Z,7.15
2023-03-11T08:14:31.338Z,5.05
2023-03-11T08:15:32.926Z,6.88
2023-03-11T08:16:34.934Z,6.20
2023-03-11T08:17:36.422Z,5.78
2023-03-11T08:18:37.930Z,6.53
2023-03-11T08:19:39.362Z,6.32
2023-03-11T08:20:40.883Z,6.55
2023-03-11T08:21:42.314Z,6.28
2023-03-11T08:22:57.262Z,7.15
2023-03-11T08:24:01.880Z,4.93
2023-03-11T08:25:03.698Z,6.45
2023-03-11T08:26:10.699Z,6.57
2023-03-11T08:27:12.370Z,6.25
2023-03-11T08:28:14.017Z,6.40
2023-03-11T08:29:15.474Z,7.40
2023-03-11T08:30:17.256Z,6.88
2023-03-11T08:31:25.493Z,6.22
2023-03-11T08:32:27.051Z,5.82
2023-03-11T08:33:28.563Z,7.50
2023-03-11T08:34:30.065Z,6.78
2023-03-11T08:35:32.287Z,6.43
2023-03-11T08:36:34.415Z,6.88
2023-03-11T08:37:35.843Z,6.63
2023-03-11T08:38:37.505Z,8.00
2023-03-11T08:39:38.970Z,6.45
2023-03-11T08:40:40.414Z,6.25
2023-03-11T08:41:41.872Z,6.45
2023-03-11T08:42:43.293Z,7.63
2023-03-11T08:43:44.880Z,7.22
2023-03-11T08:44:46.619Z,7.65
2023-03-11T08:45:48.069Z,7.68
2023-03-11T08:46:49.792Z,6.47
2023-03-11T08:47:51.279Z,7.03
2023-03-11T08:48:53.535Z,7.30
2023-03-11T08:49:54.957Z,8.13
2023-03-11T08:50:56.540Z,6.63
2023-03-11T08:51:57.958Z,7.13
2023-03-11T08:53:03.000Z,5.30
2023-03-11T08:54:04.641Z,7.72
2023-03-11T08:55:08.779Z,6.75
2023-03-11T08:56:10.273Z,7.80
2023-03-11T08:57:11.807Z,7.68
2023-03-11T08:58:13.252Z,8.73
2023-03-11T08:59:14.720Z,8.30
2023-03-11T09:00:16.628Z,8.10
2023-03-11T09:01:20.118Z,8.25
2023-03-11T09:02:21.622Z,8.20
2023-03-11T09:03:23.421Z,8.32
2023-03-11T09:04:24.871Z,7.68
2023-03-11T09:05:26.424Z,7.68
2023-03-11T09:06:30.172Z,7.93
2023-03-11T09:07:31.619Z,9.15
2023-03-11T09:08:33.349Z,7.68
2023-03-11T09:09:34.796Z,7.60
2023-03-11T09:10:36.368Z,6.85
2023-03-11T09:11:38.645Z,5.47
2023-03-11T09:12:40.086Z,5.13
2023-03-11T09:13:42.592Z,6.93
2023-03-11T09:14:44.168Z,5.75
2023-03-11T09:15:45.868Z,6.03
2023-03-11T09:16:47.331Z,6.90
2023-03-11T09:17:48.788Z,6.75
2023-03-11T09:18:50.461Z,7.38
2023-03-11T09:19:51.883Z,6.78
2023-03-11T09:20:58.135Z,6.38
2023-03-11T09:22:03.751Z,7.93
2023-03-11T09:23:06.127Z,7.15
2023-03-11T09:24:07.591Z,8.32
2023-03-11T09:25:11.859Z,8.55
2023-03-11T09:26:14.270Z,7.68
2023-03-11T09:27:15.767Z,7.40
2023-03-11T09:28:17.201Z,6.75
2023-03-11T09:29:18.663Z,6.43
2023-03-11T09:30:22.853Z,8.35
2023-03-11T09:31:24.623Z,7.72
2023-03-11T09:32:26.147Z,7.72
2023-03-11T09:33:27.668Z,6.68
2023-03-11T09:34:29.074Z,7.38
2023-03-11T09:35:30.572Z,7.25
2023-03-11T09:36:32.068Z,4.93
2023-03-11T09:37:33.502Z,5.85
2023-03-11T09:38:34.931Z,7.70
2023-03-11T09:39:36.360Z,7.22
2023-03-11T09:41:24.131Z,7.72
2023-03-11T09:42:45.861Z,5.93
2023-03-11T09:44:05.236Z,5.40
2023-03-11T09:45:26.379Z,6.82
2023-03-11T09:47:00.063Z,8.15
2023-03-11T09:48:18.182Z,6.43
2023-03-11T09:50:05.870Z,6.70
2023-03-11T09:51:25.952Z,6.93
2023-03-11T09:52:47.626Z,6.40
2023-03-11T09:53:56.261Z,7.45
2023-03-11T09:55:01.903Z,6.65
2023-03-11T09:56:07.075Z,7.43
2023-03-11T09:57:15.636Z,8.55
2023-03-11T09:58:47.550Z,7.03
2023-03-11T09:59:49.786Z,7.70
2023-03-11T10:00:52.157Z,8.57
2023-03-11T10:01:53.665Z,7.80
2023-03-11T10:02:55.544Z,7.53
2023-03-11T10:04:07.637Z,7.65
2023-03-11T10:05:28.333Z,7.88
2023-03-11T10:06:30.699Z,7.95
2023-03-11T10:07:43.397Z,8.07
2023-03-11T10:08:54.737Z,6.03
2023-03-11T10:09:58.161Z,6.88
2023-03-11T10:11:24.106Z,8.70
2023-03-11T10:12:50.691Z,8.45
2023-03-11T10:14:12.292Z,7.00
2023-03-11T10:15:21.987Z,7.93
2023-03-11T10:16:26.911Z,8.30
2023-03-11T10:17:59.197Z,9.25
2023-03-11T10:20:14.210Z,6.68
2023-03-11T10:21:32.946Z,8.05
2023-03-11T10:22:55.379Z,7.80
2023-03-11T10:24:31.686Z,7.70
2023-03-11T10:25:52.564Z,8.02
2023-03-11T10:26:59.797Z,9.05
2023-03-11T10:28:05.486Z,9.38
2023-03-11T10:29:18.904Z,9.27
2023-03-11T10:30:23.325Z,8.25
2023-03-11T10:31:27.051Z,9.45
2023-03-11T10:32:42.275Z,8.57
2023-03-11T10:34:04.119Z,9.43
2023-03-11T10:35:20.739Z,8.65
2023-03-11T10:37:01.759Z,9.82
2023-03-11T10:38:13.028Z,7.32
2023-03-11T10:39:14.520Z,9.60
2023-03-11T10:40:42.132Z,9.55
2023-03-11T10:41:49.428Z,8.85
2023-03-11T10:42:52.822Z,10.75
2023-03-11T10:44:10.025Z,10.23
2023-03-11T10:45:14.594Z,10.15
2023-03-11T10:46:24.683Z,11.35
2023-03-11T10:47:26.160Z,11.07
2023-03-11T10:48:27.581Z,10.50
2023-03-11T10:49:29.480Z,11.38
2023-03-11T10:50:36.399Z,11.10
2023-03-11T10:51:38.798Z,10.40
2023-03-11T10:54:01.616Z,10.23
2023-03-11T10:55:03.694Z,10.43
2023-03-11T10:57:23.094Z,10.73
2023-03-11T10:58:27.807Z,10.85
2023-03-11T10:59:30.917Z,10.10
2023-03-11T11:00:32.688Z,9.07
2023-03-11T11:01:34.231Z,10.75
2023-03-11T11:02:43.637Z,11.02
2023-03-11T11:03:51.397Z,10.85
2023-03-11T11:05:07.107Z,8.77
2023-03-11T11:06:18.473Z,11.00
2023-03-11T11:07:41.124Z,12.20
2023-03-11T11:08:42.570Z,10.52
2023-03-11T11:09:44.031Z,10.20
2023-03-11T11:10:56.871Z,11.90
2023-03-11T11:12:13.894Z,10.82
2023-03-11T11:13:19.753Z,10.75
2023-03-11T11:14:22.405Z,11.30
2023-03-11T11:15:23.818Z,10.98
2023-03-11T11:16:25.948Z,10.77
2023-03-11T11:18:33.498Z,10.43
2023-03-11T11:19:34.969Z,10.25
2023-03-11T11:20:53.932Z,11.90
2023-03-11T11:21:55.422Z,10.20
2023-03-11T11:22:59.279Z,10.55
2023-03-11T11:24:12.070Z,12.25
2023-03-11T11:25:37.152Z,10.73
2023-03-11T11:26:38.620Z,10.70
2023-03-11T11:27:54.064Z,8.88
2023-03-11T11:29:15.285Z,9.65
2023-03-11T11:30:17.982Z,9.95
2023-03-11T11:31:24.859Z,11.75
2023-03-11T11:32:26.776Z,11.20
2023-03-11T11:33:49.385Z,10.07
2023-03-11T11:34:53.758Z,10.23
2023-03-11T11:35:58.978Z,12.18
2023-03-11T11:37:06.033Z,11.35
2023-03-11T11:38:10.708Z,11.45
2023-03-11T11:39:20.081Z,11.52
2023-03-11T11:40:33.447Z,11.15
2023-03-11T11:41:36.838Z,10.90
2023-03-11T11:42:42.546Z,13.45
2023-03-11T11:43:46.736Z,11.73
2023-03-11T11:44:52.136Z,10.95
2023-03-11T11:46:00.476Z,10.73
2023-03-11T11:47:20.000Z,11.25
2023-03-11T11:48:26.709Z,10.30
2023-03-11T11:49:31.914Z,9.52
2023-03-11T11:50:42.059Z,11.18
2023-03-11T11:51:58.274Z,10.07
2023-03-11T11:53:40.987Z,10.70
2023-03-11T11:54:56.419Z,10.68
2023-03-11T11:55:58.082Z,10.38
2023-03-11T11:57:01.881Z,9.82
2023-03-11T11:58:05.445Z,11.07
2023-03-11T11:59:17.275Z,8.40
2023-03-11T12:00:40.382Z,9.30
2023-03-11T12:02:10.240Z,9.75
2023-03-11T12:03:43.599Z,8.32
2023-03-11T12:04:50.804Z,9.50
2023-03-11T12:05:58.398Z,8.23
2023-03-11T12:07:27.339Z,9.48
2023-03-11T12:08:47.461Z,9.65
2023-03-11T12:11:08.888Z,8.88
2023-03-11T12:12:29.984Z,9.30
2023-03-11T12:13:37.574Z,8.82
2023-03-11T12:14:48.271Z,8.30
2023-03-11T12:15:58.588Z,10.15
2023-03-11T12:17:05.001Z,9.75
2023-03-11T12:18:15.478Z,10.60
2023-03-11T12:19:30.302Z,10.40
2023-03-11T12:20:49.084Z,10.65
2023-03-11T12:22:02.677Z,8.95
2023-03-11T12:23:24.737Z,9.65
2023-03-11T12:24:56.942Z,8.77
2023-03-11T12:26:00.993Z,9.20
2023-03-11T12:27:15.234Z,8.93
2023-03-11T12:28:23.173Z,9.77
2023-03-11T12:29:30.929Z,9.30
2023-03-11T12:30:38.754Z,10.05
2023-03-11T12:31:41.668Z,10.77
2023-03-11T12:32:56.883Z,11.35
2023-03-11T12:34:03.022Z,8.55
2023-03-11T12:35:30.683Z,8.32
2023-03-11T12:36:34.066Z,8.93
2023-03-11T12:37:35.655Z,9.73
2023-03-11T12:38:39.949Z,8.77
2023-03-11T12:39:41.407Z,8.55
2023-03-11T12:40:42.880Z,9.75
2023-03-11T12:41:44.406Z,8.82
2023-03-11T12:42:46.078Z,9.23
2023-03-11T12:43:47.462Z,8.75
2023-03-11T12:44:49.818Z,10.35
2023-03-11T12:45:52.465Z,6.82
2023-03-11T12:46:53.927Z,8.25
2023-03-11T12:48:27.328Z,8.95
2023-03-11T12:49:37.475Z,9.80
2023-03-11T12:50:43.596Z,9.43
2023-03-11T12:52:14.429Z,8.38
2023-03-11T12:53:18.490Z,8.25
2023-03-11T12:54:27.692Z,7.80
2023-03-11T12:55:33.081Z,8.75
2023-03-11T12:56:38.060Z,8.73
2023-03-11T12:57:48.492Z,8.02
2023-03-11T12:59:28.868Z,8.27
2023-03-11T13:00:49.803Z,7.97
2023-03-11T13:02:03.986Z,7.38
2023-03-11T13:03:39.989Z,6.95
2023-03-11T13:05:10.017Z,7.75
2023-03-11T13:06:33.000Z,7.90
2023-03-11T13:08:03.816Z,8.18
2023-03-11T13:09:14.475Z,7.05
2023-03-11T13:10:34.209Z,8.68
2023-03-11T13:11:41.907Z,7.70
2023-03-11T13:12:46.055Z,7.65
2023-03-11T13:13:47.518Z,8.05
2023-03-11T13:14:48.980Z,8.10
2023-03-11T13:15:51.947Z,7.97
2023-03-11T13:16:54.362Z,8.05
2023-03-11T13:18:01.992Z,7.97
2023-03-11T13:19:34.468Z,7.55
2023-03-11T13:20:38.864Z,8.23
2023-03-11T13:21:41.754Z,8.38
2023-03-11T13:22:53.836Z,6.55
2023-03-11T13:24:21.941Z,5.93
2023-03-11T13:25:33.042Z,7.75
2023-03-11T13:27:04.348Z,8.30
2023-03-11T13:28:22.988Z,7.57
2023-03-11T13:29:46.216Z,7.13
2023-03-11T13:30:55.332Z,7.90
2023-03-11T13:32:14.518Z,8.02
2023-03-11T13:33:48.763Z,8.10
2023-03-11T13:34:59.173Z,6.72
2023-03-11T13:36:14.936Z,7.47
2023-03-11T13:37:19.386Z,7.47
2023-03-11T13:38:39.614Z,7.25
2023-03-11T13:39:48.542Z,7.90
2023-03-11T13:40:52.435Z,6.90
2023-03-11T13:41:54.397Z,7.43
2023-03-11T13:43:03.470Z,6.50
2023-03-11T13:44:14.304Z,6.32
2023-03-11T13:45:37.065Z,6.45
2023-03-11T13:46:42.071Z,6.15
2023-03-11T13:47:49.454Z,6.55
2023-03-11T13:49:00.850Z,6.93
2023-03-11T13:50:06.064Z,5.95
2023-03-11T13:51:22.695Z,5.13
2023-03-11T13:52:47.376Z,6.50
2023-03-11T13:54:04.622Z,7.40
2023-03-11T13:55:09.102Z,5.72
2023-03-11T13:56:37.621Z,5.38
2023-03-11T13:57:39.066Z,4.47
2023-03-11T13:58:40.492Z,6.55
2023-03-11T13:59:41.995Z,7.55
2023-03-11T14:00:52.823Z,6.82
2023-03-11T14:01:58.046Z,6.30
2023-03-11T14:03:03.626Z,6.38
2023-03-11T14:04:11.161Z,6.28
2023-03-11T14:05:17.362Z,5.00
2023-03-11T14:06:20.012Z,6.63
2023-03-11T14:07:26.739Z,6.47
2023-03-11T14:08:32.798Z,6.05
2023-03-11T14:09:34.244Z,7.10
2023-03-11T14:10:35.838Z,6.13
2023-03-11T14:11:37.238Z,6.25
2023-03-11T14:12:39.379Z,6.63
2023-03-11T14:16:13.612Z,5.43
2023-03-11T14:17:18.515Z,5.00
2023-03-11T14:18:44.130Z,6.43
2023-03-11T14:20:06.922Z,6.47
2023-03-11T14:21:20.994Z,5.97
2023-03-11T14:22:22.507Z,6.65
2023-03-11T14:23:32.623Z,6.55
2023-03-11T14:24:34.545Z,5.30
2023-03-11T14:25:38.255Z,5.18
2023-03-11T14:26:43.150Z,7.20
2023-03-11T14:27:55.598Z,6.93
2023-03-11T14:29:07.071Z,4.82
2023-03-11T14:30:20.223Z,6.07
2023-03-11T14:31:37.023Z,5.25
2023-03-11T14:32:39.143Z,4.18
2023-03-11T14:34:41.940Z,5.18
2023-03-11T14:36:12.785Z,4.80
2023-03-11T14:37:38.436Z,5.43